Time;durP1;ratioP1;P1;durP2;ratioP2;P2;SDS_P1;SDS_P2;PMS_P1;PMS_P2;Temp;Humidity;BMP_temperature;BMP_pressure;BME280_temperature;BME280_humidity;BME280_pressure;Samples;Min_cycle;Max_cycle;Signal;HPM_P1;HPM_P2
2023/09/30 00:00:00;;;;;;;10.93;3.27;;;;;;;;;;5091082;28;20172;-46
2023/09/30 00:02:27;;;;;;;11.63;3.43;;;;;;;;;;5091195;28;20180;-46
2023/09/30 00:04:53;;;;;;;14.30;3.90;;;;;;;;;;5091524;28;20164;-46
2023/09/30 00:07:19;;;;;;;12.10;3.33;;;;;;;;;;5090655;28;20638;-48
2023/09/30 00:09:45;;;;;;;10.17;3.57;;;;;;;;;;5091439;28;20291;-46
2023/09/30 00:12:11;;;;;;;13.03;3.30;;;;;;;;;;5090694;28;20260;-46
2023/09/30 00:14:37;;;;;;;15.30;3.97;;;;;;;;;;5092369;28;20168;-46
2023/09/30 00:17:03;;;;;;;11.93;3.87;;;;;;;;;;5091389;28;20207;-47
2023/09/30 00:19:32;;;;;;;11.00;3.40;;;;;;;;;;5090554;28;20299;-47
2023/09/30 00:21:59;;;;;;;8.10;2.87;;;;;;;;;;5092397;28;20172;-51
2023/09/30 00:24:25;;;;;;;14.97;3.53;;;;;;;;;;5092155;28;20294;-51
2023/09/30 00:26:51;;;;;;;10.17;3.73;;;;;;;;;;5092880;28;20183;-46
2023/09/30 00:29:17;;;;;;;15.33;3.80;;;;;;;;;;5093024;28;20224;-50
2023/09/30 00:31:44;;;;;;;13.60;3.40;;;;;;;;;;5094528;28;20240;-46
2023/09/30 00:34:10;;;;;;;10.80;3.90;;;;;;;;;;5091546;28;20200;-48
2023/09/30 00:36:36;;;;;;;9.57;3.47;;;;;;;;;;5093472;28;20235;-49
2023/09/30 00:39:02;;;;;;;11.77;3.43;;;;;;;;;;5092053;28;20173;-45
2023/09/30 00:41:28;;;;;;;10.87;3.00;;;;;;;;;;5091227;28;20187;-46
2023/09/30 00:43:54;;;;;;;15.83;4.27;;;;;;;;;;5091870;28;20172;-47
2023/09/30 00:46:31;;;;;;;10.27;3.27;;;;;;;;;;5091635;28;20582;-47
2023/09/30 00:48:58;;;;;;;15.57;3.67;;;;;;;;;;5091370;28;20438;-48
2023/09/30 00:51:26;;;;;;;15.47;3.43;;;;;;;;;;5091234;28;20543;-46
2023/09/30 00:53:53;;;;;;;8.90;3.73;;;;;;;;;;5090586;28;20180;-46
2023/09/30 00:56:20;;;;;;;15.10;4.40;;;;;;;;;;5092123;28;20176;-48
2023/09/30 00:58:46;;;;;;;9.57;3.27;;;;;;;;;;5091189;28;20172;-46
2023/09/30 01:01:12;;;;;;;9.57;3.90;;;;;;;;;;5091994;28;20241;-46
2023/09/30 01:03:39;;;;;;;9.37;3.40;;;;;;;;;;5090453;28;20172;-50
2023/09/30 01:06:05;;;;;;;12.07;4.33;;;;;;;;;;5092068;28;20267;-48
2023/09/30 01:08:34;;;;;;;11.50;3.17;;;;;;;;;;5091881;28;20271;-47
2023/09/30 01:11:00;;;;;;;12.03;3.53;;;;;;;;;;5090782;28;20436;-47
2023/09/30 01:13:36;;;;;;;10.53;3.03;;;;;;;;;;5092123;28;20175;-47
2023/09/30 01:16:05;;;;;;;11.83;3.70;;;;;;;;;;5090946;28;20171;-49
2023/09/30 01:18:31;;;;;;;15.67;4.70;;;;;;;;;;5090503;28;20528;-46
2023/09/30 01:20:58;;;;;;;9.77;3.30;;;;;;;;;;5089916;28;20172;-48
2023/09/30 01:23:24;;;;;;;11.43;3.07;;;;;;;;;;5091371;28;20263;-47
2023/09/30 01:25:50;;;;;;;10.90;3.23;;;;;;;;;;5092308;28;20283;-49
2023/09/30 01:28:16;;;;;;;17.87;4.57;;;;;;;;;;5091472;28;20223;-46
2023/09/30 01:30:44;;;;;;;11.63;3.80;;;;;;;;;;5089402;28;20211;-48
2023/09/30 01:33:10;;;;;;;9.80;4.23;;;;;;;;;;5090009;28;20172;-47
2023/09/30 01:35:36;;;;;;;16.30;3.37;;;;;;;;;;5088139;28;20232;-48
2023/09/30 01:38:02;;;;;;;9.27;3.17;;;;;;;;;;5089486;28;20169;-47
2023/09/30 01:40:28;;;;;;;12.40;3.27;;;;;;;;;;5088878;28;20183;-47
2023/09/30 01:42:54;;;;;;;8.83;2.63;;;;;;;;;;5088527;28;20488;-48
2023/09/30 01:45:20;;;;;;;11.37;3.53;;;;;;;;;;5089631;28;20531;-49
2023/09/30 01:47:46;;;;;;;10.83;3.60;;;;;;;;;;5089900;28;20207;-46
2023/09/30 01:50:12;;;;;;;7.43;3.00;;;;;;;;;;5091452;28;20268;-49
2023/09/30 01:52:38;;;;;;;15.77;4.20;;;;;;;;;;5091996;28;20251;-46
2023/09/30 01:55:04;;;;;;;9.20;3.03;;;;;;;;;;5090829;28;20172;-47
2023/09/30 01:57:30;;;;;;;11.83;3.07;;;;;;;;;;5090916;28;20176;-47
2023/09/30 01:59:56;;;;;;;14.50;3.70;;;;;;;;;;5090300;28;20390;-47
2023/09/30 02:02:22;;;;;;;12.47;3.67;;;;;;;;;;5088773;28;20237;-47
2023/09/30 02:04:48;;;;;;;13.67;3.40;;;;;;;;;;5089825;28;20591;-46
2023/09/30 02:07:14;;;;;;;11.50;3.47;;;;;;;;;;5090430;28;20428;-48
2023/09/30 02:09:40;;;;;;;13.27;3.50;;;;;;;;;;5091421;28;20633;-48
2023/09/30 02:12:07;;;;;;;9.07;3.27;;;;;;;;;;5090533;28;20237;-47
2023/09/30 02:14:33;;;;;;;9.93;3.00;;;;;;;;;;5089169;28;20180;-47
2023/09/30 02:16:59;;;;;;;11.13;2.90;;;;;;;;;;5090611;28;20413;-48
2023/09/30 02:19:27;;;;;;;11.13;3.13;;;;;;;;;;5090524;28;20172;-47
2023/09/30 02:21:53;;;;;;;11.73;3.40;;;;;;;;;;5091216;28;20176;-49
2023/09/30 02:24:19;;;;;;;14.53;4.70;;;;;;;;;;5089408;28;20168;-48
2023/09/30 02:26:45;;;;;;;13.47;3.90;;;;;;;;;;5089269;28;20188;-48
2023/09/30 02:29:11;;;;;;;11.67;3.20;;;;;;;;;;5088819;28;20227;-45
2023/09/30 02:31:37;;;;;;;13.33;3.83;;;;;;;;;;5090080;28;20457;-46
2023/09/30 02:34:03;;;;;;;11.27;3.40;;;;;;;;;;5088568;28;20197;-46
2023/09/30 02:36:29;;;;;;;14.63;3.77;;;;;;;;;;5088407;28;20471;-48
2023/09/30 02:38:55;;;;;;;9.57;3.50;;;;;;;;;;5090705;28;20180;-47
2023/09/30 02:41:21;;;;;;;16.27;3.63;;;;;;;;;;5090954;28;20396;-48
2023/09/30 02:43:47;;;;;;;9.87;3.77;;;;;;;;;;5090385;28;20199;-48
2023/09/30 02:46:14;;;;;;;16.77;4.40;;;;;;;;;;5089815;28;20176;-49
2023/09/30 02:48:40;;;;;;;12.97;3.43;;;;;;;;;;5087967;28;20176;-47
2023/09/30 02:51:09;;;;;;;13.80;3.57;;;;;;;;;;5088965;28;20210;-47
2023/09/30 02:53:36;;;;;;;7.43;3.13;;;;;;;;;;5088776;28;20164;-47
2023/09/30 02:56:04;;;;;;;10.07;3.53;;;;;;;;;;5088306;28;20183;-48
2023/09/30 02:58:29;;;;;;;15.30;3.93;;;;;;;;;;5090289;28;20187;-46
2023/09/30 03:00:55;;;;;;;8.53;3.20;;;;;;;;;;5088662;28;20268;-46
2023/09/30 03:03:22;;;;;;;13.47;3.27;;;;;;;;;;5094409;28;20187;-49
2023/09/30 03:05:49;;;;;;;11.73;3.47;;;;;;;;;;5093027;28;20176;-50
2023/09/30 03:08:16;;;;;;;10.43;3.53;;;;;;;;;;5094070;28;20555;-47
2023/09/30 03:10:42;;;;;;;10.00;3.23;;;;;;;;;;5094284;28;20214;-47
2023/09/30 03:13:08;;;;;;;12.77;3.60;;;;;;;;;;5094522;28;20160;-46
2023/09/30 03:15:35;;;;;;;13.57;3.93;;;;;;;;;;5093569;28;20174;-46
2023/09/30 03:18:01;;;;;;;16.03;3.77;;;;;;;;;;5093975;28;20168;-50
2023/09/30 03:20:27;;;;;;;11.83;3.53;;;;;;;;;;5093176;28;20509;-47
2023/09/30 03:22:53;;;;;;;12.83;3.37;;;;;;;;;;5093245;28;20190;-46
2023/09/30 03:25:22;;;;;;;16.03;3.10;;;;;;;;;;5094311;28;20457;-49
2023/09/30 03:27:48;;;;;;;12.50;4.37;;;;;;;;;;5093287;28;20702;-46
2023/09/30 03:30:19;;;;;;;22.47;5.73;;;;;;;;;;5092510;28;20223;-47
2023/09/30 03:32:45;;;;;;;13.33;3.80;;;;;;;;;;5091565;28;20289;-49
2023/09/30 03:35:16;;;;;;;18.17;3.80;;;;;;;;;;5094493;28;20259;-47
2023/09/30 03:37:42;;;;;;;13.43;4.07;;;;;;;;;;5091488;28;20361;-51
2023/09/30 03:40:14;;;;;;;16.00;4.50;;;;;;;;;;5097061;28;20290;-46
2023/09/30 03:42:43;;;;;;;11.00;3.20;;;;;;;;;;5090860;28;20352;-46
2023/09/30 03:45:10;;;;;;;10.97;2.80;;;;;;;;;;5091570;28;20178;-46
2023/09/30 03:47:36;;;;;;;11.13;4.03;;;;;;;;;;5090240;28;20458;-49
2023/09/30 03:50:03;;;;;;;14.60;3.53;;;;;;;;;;5090404;28;20392;-46
2023/09/30 03:52:29;;;;;;;14.03;3.77;;;;;;;;;;5088526;28;20520;-47
2023/09/30 03:54:55;;;;;;;16.93;5.20;;;;;;;;;;5090125;28;20187;-46
2023/09/30 03:57:21;;;;;;;11.60;3.70;;;;;;;;;;5092943;28;20179;-47
2023/09/30 03:59:47;;;;;;;9.67;3.20;;;;;;;;;;5090203;28;20210;-48
2023/09/30 04:02:14;;;;;;;9.67;3.20;;;;;;;;;;5093006;28;20232;-47
2023/09/30 04:04:40;;;;;;;12.77;3.43;;;;;;;;;;5092167;28;20625;-50
2023/09/30 04:07:10;;;;;;;8.80;3.30;;;;;;;;;;5091202;28;20179;-47
2023/09/30 04:09:36;;;;;;;9.60;2.97;;;;;;;;;;5092262;28;20195;-51
2023/09/30 04:12:02;;;;;;;12.27;3.97;;;;;;;;;;5091097;28;20203;-47
2023/09/30 04:14:28;;;;;;;11.87;3.23;;;;;;;;;;5090622;28;20172;-47
2023/09/30 04:16:54;;;;;;;12.93;4.33;;;;;;;;;;5091311;28;20165;-47
2023/09/30 04:19:21;;;;;;;12.00;4.10;;;;;;;;;;5092001;28;20168;-53
2023/09/30 04:21:47;;;;;;;14.87;4.17;;;;;;;;;;5092113;28;20182;-49
2023/09/30 04:24:13;;;;;;;12.07;3.67;;;;;;;;;;5091432;28;20318;-47
2023/09/30 04:26:40;;;;;;;12.47;3.90;;;;;;;;;;5090035;28;20274;-48
2023/09/30 04:29:08;;;;;;;14.17;3.53;;;;;;;;;;5089125;28;20220;-48
2023/09/30 04:31:34;;;;;;;12.13;4.17;;;;;;;;;;5090721;28;20355;-46
2023/09/30 04:34:00;;;;;;;9.80;3.77;;;;;;;;;;5090634;28;20171;-49
2023/09/30 04:36:26;;;;;;;9.47;3.80;;;;;;;;;;5092604;28;20190;-46
2023/09/30 04:38:52;;;;;;;15.07;3.97;;;;;;;;;;5091764;28;20248;-48
2023/09/30 04:41:18;;;;;;;10.67;4.00;;;;;;;;;;5091882;28;20184;-51
2023/09/30 04:43:44;;;;;;;11.23;3.93;;;;;;;;;;5092449;28;20176;-48
2023/09/30 04:46:12;;;;;;;17.70;4.90;;;;;;;;;;5092246;28;20172;-46
2023/09/30 04:48:38;;;;;;;9.50;4.17;;;;;;;;;;5092733;28;20168;-47
2023/09/30 04:51:06;;;;;;;15.57;4.40;;;;;;;;;;5093155;28;20234;-46
2023/09/30 04:53:33;;;;;;;12.70;3.80;;;;;;;;;;5091327;28;20508;-46
2023/09/30 04:55:59;;;;;;;13.77;4.90;;;;;;;;;;5093530;28;20371;-48
2023/09/30 04:58:26;;;;;;;14.33;3.20;;;;;;;;;;5091662;28;20480;-47
2023/09/30 05:00:52;;;;;;;14.63;3.80;;;;;;;;;;5091682;28;20267;-47
2023/09/30 05:03:19;;;;;;;11.37;3.43;;;;;;;;;;5090561;28;20187;-47
2023/09/30 05:05:45;;;;;;;10.20;3.63;;;;;;;;;;5091320;28;20179;-47
2023/09/30 05:08:13;;;;;;;10.53;4.17;;;;;;;;;;5087646;28;20172;-46
2023/09/30 05:10:39;;;;;;;10.80;3.80;;;;;;;;;;5090401;28;20635;-49
2023/09/30 05:13:06;;;;;;;10.20;4.20;;;;;;;;;;5090869;28;20260;-48
2023/09/30 05:15:32;;;;;;;12.87;3.43;;;;;;;;;;5090557;28;20164;-53
2023/09/30 05:17:58;;;;;;;13.93;3.90;;;;;;;;;;5092428;28;20555;-46
2023/09/30 05:20:24;;;;;;;10.10;3.87;;;;;;;;;;5090441;28;20378;-49
2023/09/30 05:22:50;;;;;;;11.87;4.27;;;;;;;;;;5089834;28;20458;-48
2023/09/30 05:25:17;;;;;;;17.60;4.60;;;;;;;;;;5091182;28;20423;-46
2023/09/30 05:27:43;;;;;;;13.23;4.10;;;;;;;;;;5089910;28;20176;-46
2023/09/30 05:30:10;;;;;;;11.43;3.80;;;;;;;;;;5090757;28;20472;-46
2023/09/30 05:32:38;;;;;;;12.27;4.23;;;;;;;;;;5090269;28;20168;-47
2023/09/30 05:35:06;;;;;;;9.67;4.30;;;;;;;;;;5091075;28;20172;-50
2023/09/30 05:37:31;;;;;;;12.43;4.10;;;;;;;;;;5089160;28;20168;-46
2023/09/30 05:39:58;;;;;;;11.97;4.27;;;;;;;;;;5089781;28;20172;-48
2023/09/30 05:42:24;;;;;;;13.17;4.43;;;;;;;;;;5090380;28;20562;-46
2023/09/30 05:44:51;;;;;;;10.70;3.77;;;;;;;;;;5091244;28;20433;-51
2023/09/30 05:47:17;;;;;;;14.93;3.73;;;;;;;;;;5090134;28;20204;-48
2023/09/30 05:49:43;;;;;;;17.77;4.07;;;;;;;;;;5089748;28;20200;-49
2023/09/30 05:52:09;;;;;;;14.67;3.30;;;;;;;;;;5091884;28;20518;-49
2023/09/30 05:54:35;;;;;;;13.97;3.83;;;;;;;;;;5091570;28;20165;-49
2023/09/30 05:57:02;;;;;;;12.57;4.13;;;;;;;;;;5089934;28;20219;-47
2023/09/30 05:59:29;;;;;;;12.80;3.93;;;;;;;;;;5089620;28;20168;-49
2023/09/30 06:01:55;;;;;;;11.20;3.50;;;;;;;;;;5089020;28;20407;-47
2023/09/30 06:04:21;;;;;;;16.87;4.83;;;;;;;;;;5087073;28;20207;-48
2023/09/30 06:06:47;;;;;;;13.63;3.80;;;;;;;;;;5086782;28;20248;-49
2023/09/30 06:09:13;;;;;;;20.23;4.13;;;;;;;;;;5082540;28;20645;-46
2023/09/30 06:11:41;;;;;;;12.83;4.07;;;;;;;;;;5085692;28;20175;-46
2023/09/30 06:14:08;;;;;;;14.80;3.70;;;;;;;;;;5087078;28;20352;-47
2023/09/30 06:16:34;;;;;;;15.67;3.77;;;;;;;;;;5085106;28;20172;-46
2023/09/30 06:19:01;;;;;;;10.03;4.47;;;;;;;;;;5084644;28;20618;-49
2023/09/30 06:21:29;;;;;;;14.13;4.33;;;;;;;;;;5086524;28;20220;-48
2023/09/30 06:23:55;;;;;;;18.73;4.40;;;;;;;;;;5087362;28;20487;-49
2023/09/30 06:26:21;;;;;;;12.87;4.63;;;;;;;;;;5086023;28;20379;-47
2023/09/30 06:28:47;;;;;;;12.10;3.83;;;;;;;;;;5084480;28;20245;-49
2023/09/30 06:31:15;;;;;;;15.50;4.67;;;;;;;;;;5084361;28;20215;-46
2023/09/30 06:33:41;;;;;;;17.97;5.17;;;;;;;;;;5084896;28;20254;-47
2023/09/30 06:36:13;;;;;;;17.10;4.13;;;;;;;;;;5085176;28;20499;-46
2023/09/30 06:38:41;;;;;;;16.90;4.07;;;;;;;;;;5085334;28;20329;-47
2023/09/30 06:41:08;;;;;;;10.60;3.97;;;;;;;;;;5084644;28;20254;-48
2023/09/30 06:43:37;;;;;;;8.70;3.00;;;;;;;;;;5085510;28;20237;-48
2023/09/30 06:46:09;;;;;;;13.60;3.53;;;;;;;;;;5085683;28;20168;-47
2023/09/30 06:48:35;;;;;;;11.97;4.07;;;;;;;;;;5086646;28;20180;-47
2023/09/30 06:51:01;;;;;;;17.97;3.87;;;;;;;;;;5085636;28;20224;-47
2023/09/30 06:53:27;;;;;;;13.70;4.73;;;;;;;;;;5086659;28;20578;-49
2023/09/30 06:55:54;;;;;;;15.23;3.80;;;;;;;;;;5084602;28;20173;-47
2023/09/30 06:58:21;;;;;;;12.40;4.20;;;;;;;;;;5084012;28;20685;-46
2023/09/30 07:00:48;;;;;;;10.60;3.37;;;;;;;;;;5084360;28;20172;-47
2023/09/30 07:03:15;;;;;;;10.13;3.50;;;;;;;;;;5085676;28;20180;-46
2023/09/30 07:05:41;;;;;;;15.30;3.60;;;;;;;;;;5087121;28;20180;-49
2023/09/30 07:08:07;;;;;;;8.87;3.40;;;;;;;;;;5087825;28;20167;-47
2023/09/30 07:10:33;;;;;;;11.50;3.23;;;;;;;;;;5086229;28;20360;-47
2023/09/30 07:13:02;;;;;;;10.33;4.13;;;;;;;;;;5085107;28;20442;-46
2023/09/30 07:15:28;;;;;;;12.87;3.43;;;;;;;;;;5085567;28;20290;-46
2023/09/30 07:17:55;;;;;;;13.07;3.83;;;;;;;;;;5087317;28;20164;-47
2023/09/30 07:20:22;;;;;;;11.73;3.77;;;;;;;;;;5090994;28;20547;-48
2023/09/30 07:22:48;;;;;;;15.80;4.27;;;;;;;;;;5089410;28;20171;-51
2023/09/30 07:25:16;;;;;;;12.73;4.13;;;;;;;;;;5084877;28;20168;-46
2023/09/30 07:27:42;;;;;;;14.83;3.53;;;;;;;;;;5084226;28;20531;-47
2023/09/30 07:30:08;;;;;;;9.77;2.83;;;;;;;;;;5084483;28;20279;-46
2023/09/30 07:32:34;;;;;;;13.83;4.27;;;;;;;;;;5085404;28;20209;-48
2023/09/30 07:35:01;;;;;;;10.53;3.97;;;;;;;;;;5086754;28;20160;-47
2023/09/30 07:37:27;;;;;;;14.70;3.90;;;;;;;;;;5085381;28;20172;-47
2023/09/30 07:39:53;;;;;;;9.83;3.27;;;;;;;;;;5086206;28;20180;-47
2023/09/30 07:42:19;;;;;;;13.47;3.57;;;;;;;;;;5086117;28;20180;-47
2023/09/30 07:44:45;;;;;;;15.17;3.23;;;;;;;;;;5084430;28;20371;-47
2023/09/30 07:47:12;;;;;;;7.93;2.80;;;;;;;;;;5084138;28;20267;-46
2023/09/30 07:49:38;;;;;;;10.63;2.87;;;;;;;;;;5084681;28;20207;-47
2023/09/30 07:52:05;;;;;;;11.10;3.17;;;;;;;;;;5090009;28;20236;-50
2023/09/30 07:54:32;;;;;;;10.73;3.07;;;;;;;;;;5088316;28;20184;-49
2023/09/30 07:56:58;;;;;;;14.90;4.30;;;;;;;;;;5086536;28;20479;-47
2023/09/30 07:59:25;;;;;;;11.93;3.63;;;;;;;;;;5087162;28;20164;-49
2023/09/30 08:01:54;;;;;;;7.27;3.03;;;;;;;;;;5085043;28;20171;-46
2023/09/30 08:04:20;;;;;;;9.97;3.13;;;;;;;;;;5086998;28;20160;-47
2023/09/30 08:06:46;;;;;;;14.20;4.43;;;;;;;;;;5089314;28;20407;-48
2023/09/30 08:09:13;;;;;;;16.23;3.40;;;;;;;;;;5088805;28;20180;-48
2023/09/30 08:11:40;;;;;;;8.80;3.10;;;;;;;;;;5090602;28;20177;-46
2023/09/30 08:14:08;;;;;;;13.10;3.50;;;;;;;;;;5090065;28;20199;-47
2023/09/30 08:16:35;;;;;;;13.73;3.60;;;;;;;;;;5090024;28;20172;-48
2023/09/30 08:19:01;;;;;;;9.37;3.13;;;;;;;;;;5089848;28;20218;-47
2023/09/30 08:21:27;;;;;;;11.77;3.20;;;;;;;;;;5089449;28;20215;-47
2023/09/30 08:23:53;;;;;;;15.60;3.23;;;;;;;;;;5089553;28;20353;-50
2023/09/30 08:26:20;;;;;;;7.90;2.30;;;;;;;;;;5089158;28;20265;-47
2023/09/30 08:28:46;;;;;;;11.13;2.73;;;;;;;;;;5088531;28;20318;-46
2023/09/30 08:31:12;;;;;;;10.17;3.17;;;;;;;;;;5086526;28;20210;-48
2023/09/30 08:33:41;;;;;;;9.97;2.70;;;;;;;;;;5085067;28;20201;-48
2023/09/30 08:36:08;;;;;;;10.87;2.60;;;;;;;;;;5086389;28;20192;-49
2023/09/30 08:38:35;;;;;;;12.80;3.60;;;;;;;;;;5087141;28;20609;-50
2023/09/30 08:41:02;;;;;;;9.83;2.53;;;;;;;;;;5087141;28;20189;-47
2023/09/30 08:43:30;;;;;;;8.73;2.60;;;;;;;;;;5088763;28;20476;-47
2023/09/30 08:45:56;;;;;;;6.77;2.43;;;;;;;;;;5088003;28;20473;-47
2023/09/30 08:48:26;;;;;;;11.77;3.30;;;;;;;;;;5089114;28;20292;-48
2023/09/30 08:50:54;;;;;;;10.17;3.30;;;;;;;;;;5085844;28;20210;-47
2023/09/30 08:53:21;;;;;;;9.30;2.57;;;;;;;;;;5086651;28;20454;-48
2023/09/30 08:55:47;;;;;;;7.40;2.50;;;;;;;;;;5089131;28;20215;-47
2023/09/30 08:58:14;;;;;;;12.87;3.00;;;;;;;;;;5089494;28;20404;-47
2023/09/30 09:00:40;;;;;;;9.67;2.90;;;;;;;;;;5087549;28;20210;-47
2023/09/30 09:03:09;;;;;;;12.30;2.53;;;;;;;;;;5087255;28;20172;-47
2023/09/30 09:05:35;;;;;;;13.17;2.57;;;;;;;;;;5088235;28;20164;-46
2023/09/30 09:08:01;;;;;;;11.57;2.97;;;;;;;;;;5088378;28;20160;-46
2023/09/30 09:10:27;;;;;;;8.83;2.90;;;;;;;;;;5086280;28;20298;-49
2023/09/30 09:12:57;;;;;;;11.20;3.53;;;;;;;;;;5085614;28;20342;-47
2023/09/30 09:15:30;;;;;;;10.80;3.27;;;;;;;;;;5084905;28;20171;-45
2023/09/30 09:17:57;;;;;;;8.93;2.33;;;;;;;;;;5083837;28;20171;-48
2023/09/30 09:20:25;;;;;;;8.20;2.73;;;;;;;;;;5087175;28;20498;-47
2023/09/30 09:22:58;;;;;;;10.17;2.10;;;;;;;;;;5086262;28;20168;-49
2023/09/30 09:25:24;;;;;;;8.90;3.23;;;;;;;;;;5091481;28;20574;-47
2023/09/30 09:27:51;;;;;;;12.53;3.20;;;;;;;;;;5094471;28;20176;-50
2023/09/30 09:30:22;;;;;;;7.37;2.70;;;;;;;;;;5093132;28;20298;-48
2023/09/30 09:32:55;;;;;;;8.50;2.53;;;;;;;;;;5093956;28;20164;-48
2023/09/30 09:35:22;;;;;;;15.03;2.77;;;;;;;;;;5092614;28;20174;-45
2023/09/30 09:37:56;;;;;;;12.47;2.17;;;;;;;;;;5093848;28;20569;-50
2023/09/30 09:40:24;;;;;;;13.97;2.50;;;;;;;;;;5092101;28;20530;-48
2023/09/30 09:42:53;;;;;;;8.83;2.40;;;;;;;;;;5094198;28;20164;-46
2023/09/30 09:45:22;;;;;;;10.27;2.87;;;;;;;;;;5093018;28;20176;-47
2023/09/30 09:47:49;;;;;;;11.47;2.70;;;;;;;;;;5091023;28;20164;-50
2023/09/30 09:50:15;;;;;;;8.23;2.67;;;;;;;;;;5089457;28;20598;-50
2023/09/30 09:52:43;;;;;;;7.37;2.10;;;;;;;;;;5089188;28;20202;-51
2023/09/30 09:55:11;;;;;;;7.67;2.73;;;;;;;;;;5088858;28;20172;-49
2023/09/30 09:57:38;;;;;;;8.67;2.03;;;;;;;;;;5090110;28;20278;-48
2023/09/30 10:00:13;;;;;;;12.87;2.43;;;;;;;;;;5089534;28;20204;-47
2023/09/30 10:02:40;;;;;;;8.23;2.10;;;;;;;;;;5074825;28;20175;-48
2023/09/30 10:05:08;;;;;;;6.80;2.30;;;;;;;;;;5090374;28;20221;-47
2023/09/30 10:07:37;;;;;;;9.03;2.60;;;;;;;;;;5088136;28;20609;-52
2023/09/30 10:10:07;;;;;;;14.63;2.63;;;;;;;;;;5073641;28;20266;-50
2023/09/30 10:12:39;;;;;;;13.20;3.20;;;;;;;;;;5091649;28;20199;-48
2023/09/30 10:15:40;;;;;;;7.50;2.00;;;;;;;;;;5091901;28;20195;-50
2023/09/30 10:18:07;;;;;;;7.33;3.00;;;;;;;;;;5030510;28;20226;-47
2023/09/30 10:20:35;;;;;;;7.37;2.53;;;;;;;;;;5031340;28;20189;-52
2023/09/30 10:23:21;;;;;;;8.07;2.77;;;;;;;;;;5049232;28;20173;-50
2023/09/30 10:25:47;;;;;;;8.17;2.43;;;;;;;;;;5061183;28;20476;-48
2023/09/30 10:28:32;;;;;;;11.83;3.40;;;;;;;;;;5092320;28;20227;-51
2023/09/30 10:31:19;;;;;;;7.80;1.93;;;;;;;;;;5093074;28;20239;-50
2023/09/30 10:34:04;;;;;;;6.63;1.83;;;;;;;;;;5091566;28;20192;-51
2023/09/30 10:36:31;;;;;;;9.87;1.97;;;;;;;;;;5092481;28;20715;-50
2023/09/30 10:38:58;;;;;;;9.83;2.30;;;;;;;;;;5088807;28;20301;-49
2023/09/30 10:41:40;;;;;;;10.47;2.50;;;;;;;;;;5089142;28;20168;-50
2023/09/30 10:44:29;;;;;;;9.00;2.10;;;;;;;;;;5087165;28;20187;-49
2023/09/30 10:46:58;;;;;;;8.87;2.53;;;;;;;;;;5087765;28;20255;-48
2023/09/30 10:49:27;;;;;;;5.93;2.13;;;;;;;;;;5086437;28;20722;-48
2023/09/30 10:51:54;;;;;;;6.97;2.10;;;;;;;;;;5088356;28;20233;-49
2023/09/30 10:54:25;;;;;;;11.10;2.67;;;;;;;;;;5088684;28;20176;-47
2023/09/30 10:56:53;;;;;;;8.50;2.27;;;;;;;;;;5089743;28;20180;-48
2023/09/30 10:59:25;;;;;;;7.70;2.07;;;;;;;;;;5088447;28;20168;-49
2023/09/30 11:01:52;;;;;;;10.27;2.33;;;;;;;;;;5088576;28;20620;-47
2023/09/30 11:04:20;;;;;;;8.10;2.20;;;;;;;;;;5087657;28;20156;-49
2023/09/30 11:06:46;;;;;;;4.97;1.60;;;;;;;;;;5085685;28;20721;-50
2023/09/30 11:09:17;;;;;;;8.30;2.57;;;;;;;;;;5087135;28;20190;-50
2023/09/30 11:11:50;;;;;;;7.10;2.20;;;;;;;;;;5086119;28;20203;-47
2023/09/30 11:14:27;;;;;;;6.43;1.90;;;;;;;;;;5087648;28;20566;-52
2023/09/30 11:16:56;;;;;;;7.23;1.80;;;;;;;;;;5089545;28;20172;-49
2023/09/30 11:19:22;;;;;;;4.17;1.83;;;;;;;;;;5089818;28;20563;-50
2023/09/30 11:21:50;;;;;;;6.30;1.87;;;;;;;;;;5089105;28;20172;-51
2023/09/30 11:24:18;;;;;;;7.73;2.20;;;;;;;;;;5093805;28;20175;-47
2023/09/30 11:26:47;;;;;;;4.47;1.67;;;;;;;;;;5095210;28;20180;-48
2023/09/30 11:29:18;;;;;;;8.93;1.73;;;;;;;;;;5095736;28;20234;-50
2023/09/30 11:31:46;;;;;;;8.50;1.80;;;;;;;;;;5094574;28;20574;-47
2023/09/30 11:34:14;;;;;;;9.67;2.20;;;;;;;;;;5092578;28;20168;-49
2023/09/30 11:36:44;;;;;;;5.87;1.43;;;;;;;;;;5092911;28;20184;-50
2023/09/30 11:39:13;;;;;;;5.30;2.00;;;;;;;;;;5094265;28;20160;-49
2023/09/30 11:41:41;;;;;;;7.27;1.97;;;;;;;;;;5094449;28;20563;-51
2023/09/30 11:44:09;;;;;;;8.63;2.27;;;;;;;;;;5094681;28;20292;-49
2023/09/30 11:46:55;;;;;;;10.07;2.90;;;;;;;;;;5095756;28;20751;-49
2023/09/30 11:49:29;;;;;;;5.27;1.67;;;;;;;;;;5095283;28;20179;-48
2023/09/30 11:51:56;;;;;;;7.03;1.60;;;;;;;;;;5094950;28;20179;-51
2023/09/30 11:54:23;;;;;;;6.57;1.90;;;;;;;;;;5095786;28;20462;-48
2023/09/30 11:56:50;;;;;;;9.23;2.00;;;;;;;;;;5096464;28;20255;-50
2023/09/30 11:59:19;;;;;;;9.00;2.80;;;;;;;;;;5095453;28;20164;-53
2023/09/30 12:01:46;;;;;;;9.50;2.23;;;;;;;;;;5094823;28;20174;-50
2023/09/30 12:04:14;;;;;;;9.13;1.87;;;;;;;;;;5093210;28;20179;-52
2023/09/30 12:06:40;;;;;;;6.40;2.13;;;;;;;;;;5093980;28;20559;-50
2023/09/30 12:09:09;;;;;;;8.10;2.03;;;;;;;;;;5091978;28;20215;-48
2023/09/30 12:11:35;;;;;;;10.47;1.87;;;;;;;;;;5093249;28;20236;-50
2023/09/30 12:14:04;;;;;;;6.17;2.33;;;;;;;;;;5093115;28;20184;-53
2023/09/30 12:16:30;;;;;;;6.47;1.50;;;;;;;;;;5093904;28;20179;-49
2023/09/30 12:18:57;;;;;;;6.40;1.60;;;;;;;;;;5092974;28;20180;-48
2023/09/30 12:21:24;;;;;;;8.87;1.97;;;;;;;;;;5093105;28;20218;-49
2023/09/30 12:23:51;;;;;;;3.00;1.67;;;;;;;;;;5093377;28;20179;-50
2023/09/30 12:26:19;;;;;;;9.10;2.80;;;;;;;;;;5092420;28;20176;-48
2023/09/30 12:28:45;;;;;;;5.50;1.57;;;;;;;;;;5093414;28;20228;-48
2023/09/30 12:31:13;;;;;;;3.87;2.13;;;;;;;;;;5092874;28;20204;-52
2023/09/30 12:33:40;;;;;;;6.93;1.90;;;;;;;;;;5094472;28;20164;-50
2023/09/30 12:36:07;;;;;;;8.23;2.43;;;;;;;;;;5092743;28;20176;-50
2023/09/30 12:38:33;;;;;;;3.23;1.50;;;;;;;;;;5094823;28;20172;-50
2023/09/30 12:41:00;;;;;;;2.80;1.37;;;;;;;;;;5091994;28;20180;-48
2023/09/30 12:43:28;;;;;;;7.43;2.40;;;;;;;;;;5092345;28;20206;-50
2023/09/30 12:45:55;;;;;;;6.43;2.40;;;;;;;;;;5091800;28;20608;-51
2023/09/30 12:48:22;;;;;;;4.50;2.20;;;;;;;;;;5092791;28;20187;-51
2023/09/30 12:50:48;;;;;;;7.13;2.60;;;;;;;;;;5091635;28;20207;-48
2023/09/30 12:53:14;;;;;;;5.40;2.20;;;;;;;;;;5093330;28;20168;-49
2023/09/30 12:55:42;;;;;;;3.37;1.60;;;;;;;;;;5094202;28;20176;-50
2023/09/30 12:58:08;;;;;;;6.03;1.70;;;;;;;;;;5093566;28;20661;-49
2023/09/30 13:00:36;;;;;;;6.03;1.97;;;;;;;;;;5093513;28;20164;-54
2023/09/30 13:03:09;;;;;;;5.77;2.03;;;;;;;;;;5093402;28;20551;-48
2023/09/30 13:05:35;;;;;;;10.20;2.30;;;;;;;;;;5091465;28;20821;-53
2023/09/30 13:08:02;;;;;;;9.97;2.40;;;;;;;;;;5093104;28;20207;-52
2023/09/30 13:10:30;;;;;;;5.63;1.80;;;;;;;;;;5092526;28;20207;-52
2023/09/30 13:12:56;;;;;;;7.27;1.77;;;;;;;;;;5093086;28;20164;-51
2023/09/30 13:15:24;;;;;;;6.60;1.67;;;;;;;;;;5091098;28;20217;-49
2023/09/30 13:17:50;;;;;;;7.17;1.93;;;;;;;;;;5090517;28;20179;-51
2023/09/30 13:20:18;;;;;;;8.43;2.73;;;;;;;;;;5089459;28;20601;-48
2023/09/30 13:22:45;;;;;;;8.77;1.73;;;;;;;;;;5089584;28;20203;-52
2023/09/30 13:25:15;;;;;;;8.03;2.13;;;;;;;;;;5090874;28;20212;-50
2023/09/30 13:27:41;;;;;;;5.57;1.53;;;;;;;;;;5091255;28;20179;-50
2023/09/30 13:30:09;;;;;;;4.50;1.87;;;;;;;;;;5091803;28;20207;-52
2023/09/30 13:32:39;;;;;;;5.67;1.37;;;;;;;;;;5090046;28;20164;-48
2023/09/30 13:35:05;;;;;;;8.53;1.43;;;;;;;;;;5089052;28;20168;-48
2023/09/30 13:37:36;;;;;;;6.77;1.80;;;;;;;;;;5089677;28;20226;-48
2023/09/30 13:40:04;;;;;;;4.67;1.27;;;;;;;;;;5086270;28;20190;-51
2023/09/30 13:42:30;;;;;;;7.00;2.37;;;;;;;;;;5088166;28;20472;-52
2023/09/30 13:44:57;;;;;;;6.50;1.40;;;;;;;;;;5086691;28;20172;-48
2023/09/30 13:47:24;;;;;;;6.63;2.40;;;;;;;;;;5087646;28;20171;-52
2023/09/30 13:49:49;;;;;;;5.10;2.00;;;;;;;;;;5089559;28;20719;-50
2023/09/30 13:52:16;;;;;;;4.70;1.60;;;;;;;;;;5090869;28;20676;-50
2023/09/30 13:54:42;;;;;;;7.23;1.70;;;;;;;;;;5092152;28;20188;-54
2023/09/30 13:57:08;;;;;;;4.07;1.57;;;;;;;;;;5091724;28;20163;-49
2023/09/30 13:59:35;;;;;;;5.10;2.67;;;;;;;;;;5091194;28;20176;-51
2023/09/30 14:02:01;;;;;;;7.10;2.23;;;;;;;;;;5091328;28;20164;-52
2023/09/30 14:04:27;;;;;;;5.20;1.70;;;;;;;;;;5090248;28;20226;-53
2023/09/30 14:06:53;;;;;;;6.00;1.53;;;;;;;;;;5090124;28;20234;-51
2023/09/30 14:09:19;;;;;;;3.83;1.33;;;;;;;;;;5091671;28;20626;-48
2023/09/30 14:11:45;;;;;;;9.00;2.53;;;;;;;;;;5090358;28;20215;-50
2023/09/30 14:14:11;;;;;;;5.50;2.17;;;;;;;;;;5090575;28;20164;-52
2023/09/30 14:16:38;;;;;;;9.37;1.93;;;;;;;;;;5091250;28;20149;-47
2023/09/30 14:19:04;;;;;;;6.93;2.20;;;;;;;;;;5090868;28;20255;-49
2023/09/30 14:21:32;;;;;;;5.10;2.00;;;;;;;;;;5090795;28;20262;-50
2023/09/30 14:23:58;;;;;;;6.67;2.47;;;;;;;;;;5089733;28;20176;-53
2023/09/30 14:26:24;;;;;;;8.70;2.20;;;;;;;;;;5088089;28;20179;-49
2023/09/30 14:28:51;;;;;;;4.60;1.67;;;;;;;;;;5088878;28;20243;-54
2023/09/30 14:31:17;;;;;;;7.20;2.30;;;;;;;;;;5087771;28;20215;-50
2023/09/30 14:33:43;;;;;;;7.80;2.20;;;;;;;;;;5088663;28;20168;-50
2023/09/30 14:36:09;;;;;;;6.83;2.40;;;;;;;;;;5089550;28;20168;-51